This is the latest recevied weather packets stored in our database for station/object DG0PX-12. If no packets are shown the sender has not sent any weather packets the latest 10 day(s).
| Time | Temp. | Humidity | Pressure | Rain* | Wind** | Luminosity | Snow |
|---|---|---|---|---|---|---|---|
| 1787880580 | 25° C | 62% | 945.3 hPa | - | - | - | - |
| 1787879680 | 26.67° C | 57% | 945.4 hPa | - | - | - | - |
| 1787878780 | 27.78° C | 54% | 945.4 hPa | - | - | - | - |
| 1787877880 | 26.67° C | 58% | 945.4 hPa | - | - | - | - |
| 1787876980 | 26.67° C | 59% | 945.5 hPa | - | - | - | - |
| 1787876080 | 26.67° C | 59% | 945.5 hPa | - | - | - | - |
| 1787875180 | 25.56° C | 65% | 945.4 hPa | - | - | - | - |
| 1787874279 | 26.67° C | 62% | 945.4 hPa | - | - | - | - |
| 1787873379 | 28.33° C | 54% | 945.5 hPa | - | - | - | - |
| 1787872479 | 27.78° C | 55% | 945.6 hPa | - | - | - | - |
| 1787871579 | 27.78° C | 58% | 945.8 hPa | - | - | - | - |
| 1787870679 | 27.22° C | 63% | 945.9 hPa | - | - | - | - |
| 1787869779 | 26.67° C | 64% | 946.1 hPa | - | - | - | - |
| 1787868879 | 27.22° C | 61% | 946.2 hPa | - | - | - | - |
| 1787867979 | 27.78° C | 59% | 946.4 hPa | - | - | - | - |
| 1787867079 | 27.78° C | 58% | 946.4 hPa | - | - | - | - |
| 1787866179 | 28.89° C | 54% | 946.8 hPa | - | - | - | - |
| 1787865279 | 27.78° C | 59% | 946.6 hPa | - | - | - | - |
| 1787864379 | 28.89° C | 55% | 946.7 hPa | - | - | - | - |
| 1787863479 | 28.33° C | 57% | 946.7 hPa | - | - | - | - |
| 1787862579 | 27.78° C | 59% | 946.7 hPa | - | - | - | - |
| 1787861679 | 30° C | 52% | 947.1 hPa | - | - | - | - |
| 1787860779 | 28.89° C | 54% | 947 hPa | - | - | - | - |
| 1787859879 | 29.44° C | 55% | 946.9 hPa | - | - | - | - |
| 1787858978 | 30° C | 51% | 946.7 hPa | - | - | - | - |
* Rain since midnight (hover to see other rain measurements)
** Current wind speed in m/s (hover to see current wind gust speed)